Terminal Aerodrome Forecast
Issued by NWS Sterling, VA

Home | Current Version | Previous Version | Text Only | Print | Product List | Glossary On
Versions: 1 2 3 4 5 6 7 8 9 10 11 12 13 14
000
FTUS41 KLWX 030540 RRA
TAFCHO
TAF
KCHO 030540Z 0306/0406 00000KT P6SM SKC
     FM031600 16005KT 3SM -SNPL OVC050
     FM031700 19009KT 4SM BR OVC025
      TEMPO 0317/0321 4SM -FZRA OVC025
     FM032100 19011KT 4SM BR OVC015
      TEMPO 0321/0324 4SM -FZDZ OVC008=

USA.gov is the U.S. government's official web portal to all federal, state and local government web resources and services.